Terminal Aerodrome Forecast
Issued by NWS

Home | Current Version | Previous Version | Text Only | Print | Product List | Glossary On
Versions: 1 2 3 4 5 6 7 8 9 10 11 12 13 14 15 16 17 18 19 20 21 22 23 24
000
FTPA31 PHFO 030500
TAFLNY
TAF
PHNY 030520Z 0306/0406 03010KT P6SM FEW020 SCT035
     FM031000 05007KT P6SM SCT020 SCT035
     FM031900 03013KT P6SM SCT020 BKN035 BKN250
      AMD NOT SKED=

USA.gov is the U.S. government's official web portal to all federal, state and local government web resources and services.